createdAt,value
2023-03-10T00:00:05.971Z,1.46
2023-03-10T00:05:10.370Z,1.47
2023-03-10T00:10:16.554Z,1.47
2023-03-10T00:15:18.694Z,1.47
2023-03-10T00:20:25.133Z,1.46
2023-03-10T00:25:26.899Z,1.45
2023-03-10T00:30:31.220Z,1.47
2023-03-10T00:35:40.738Z,1.46
2023-03-10T00:40:42.508Z,1.43
2023-03-10T00:45:48.748Z,1.42
2023-03-10T00:50:55.256Z,1.38
2023-03-10T00:56:02.853Z,1.36
2023-03-10T01:01:05.504Z,1.32
2023-03-10T01:06:07.488Z,1.30
2023-03-10T01:11:15.653Z,1.30
2023-03-10T01:16:19.642Z,1.30
2023-03-10T01:21:26.929Z,1.29
2023-03-10T01:26:29.585Z,1.29
2023-03-10T01:31:33.467Z,1.28
2023-03-10T01:36:44.475Z,1.28
2023-03-10T01:41:50.502Z,1.30
2023-03-10T01:46:55.919Z,1.31
2023-03-10T01:52:04.839Z,1.30
2023-03-10T01:57:07.659Z,1.29
2023-03-10T02:02:10.341Z,1.29
2023-03-10T02:07:13.728Z,1.30
2023-03-10T02:12:16.009Z,1.29
2023-03-10T02:17:22.016Z,1.29
2023-03-10T02:22:23.778Z,1.30
2023-03-10T02:27:34.068Z,1.33
2023-03-10T02:32:42.405Z,1.35
2023-03-10T02:37:46.339Z,1.36
2023-03-10T02:42:49.273Z,1.38
2023-03-10T02:47:53.950Z,1.39
2023-03-10T02:53:13.676Z,1.39
2023-03-10T02:58:15.644Z,1.38
2023-03-10T03:03:21.927Z,1.35
2023-03-10T03:08:24.226Z,1.33
2023-03-10T03:13:30.884Z,1.29
2023-03-10T03:18:37.719Z,1.23
2023-03-10T03:23:40.424Z,1.21
2023-03-10T03:28:42.998Z,1.19
2023-03-10T03:33:45.158Z,1.13
2023-03-10T03:38:47.227Z,1.11
2023-03-10T03:43:51.005Z,1.12
2023-03-10T03:48:53.025Z,1.10
2023-03-10T03:53:54.821Z,1.10
2023-03-10T03:58:59.501Z,1.09
2023-03-10T04:04:01.622Z,1.09
2023-03-10T04:09:06.609Z,1.08
2023-03-10T04:14:09.277Z,1.08
2023-03-10T04:19:14.111Z,1.08
2023-03-10T04:24:22.033Z,1.08
2023-03-10T04:29:24.557Z,1.11
2023-03-10T04:34:30.398Z,1.10
2023-03-10T04:39:36.800Z,1.12
2023-03-10T04:44:41.400Z,1.10
2023-03-10T04:49:45.893Z,1.08
2023-03-10T04:54:49.229Z,1.10
2023-03-10T04:59:53.623Z,1.06
2023-03-10T05:04:58.883Z,1.04
2023-03-10T05:10:00.702Z,1.00
2023-03-10T05:15:09.491Z,1.01
2023-03-10T05:20:13.857Z,0.99
2023-03-10T05:25:19.361Z,0.99
2023-03-10T05:30:24.775Z,0.98
2023-03-10T05:35:29.474Z,0.97
2023-03-10T05:40:31.895Z,0.95
2023-03-10T05:45:41.536Z,0.95
2023-03-10T05:50:43.368Z,0.96
2023-03-10T05:55:45.114Z,0.97
2023-03-10T06:00:49.895Z,0.95
2023-03-10T06:05:51.824Z,0.95
2023-03-10T06:10:56.622Z,0.94
2023-03-10T06:16:04.256Z,1.12
2023-03-10T06:21:11.075Z,1.10
2023-03-10T06:26:15.983Z,1.15
2023-03-10T06:31:21.086Z,1.13
2023-03-10T06:36:23.669Z,1.18
2023-03-10T06:41:26.125Z,1.44
2023-03-10T06:46:28.902Z,1.95
2023-03-10T06:51:30.602Z,1.69
2023-03-10T06:56:37.546Z,1.52
2023-03-10T07:01:39.404Z,1.40
2023-03-10T07:06:43.513Z,1.34
2023-03-10T07:11:45.283Z,1.30
2023-03-10T07:16:47.525Z,1.29
2023-03-10T07:21:49.233Z,1.28
2023-03-10T07:26:55.569Z,1.19
2023-03-10T07:31:57.261Z,1.12
2023-03-10T07:37:01.660Z,0.99
2023-03-10T07:42:10.893Z,0.96
2023-03-10T07:47:12.664Z,0.88
2023-03-10T07:52:15.670Z,0.80
2023-03-10T07:57:17.374Z,0.70
2023-03-10T08:02:21.329Z,0.64
2023-03-10T08:07:23.145Z,0.63
2023-03-10T08:12:27.133Z,0.64
2023-03-10T08:17:34.552Z,0.64
2023-03-10T08:22:39.030Z,0.61
2023-03-10T08:27:42.617Z,0.57
2023-03-10T08:32:46.950Z,0.61
2023-03-10T08:37:48.607Z,0.58
2023-03-10T08:42:55.131Z,0.58
2023-03-10T08:47:59.140Z,0.55
2023-03-10T08:53:04.113Z,0.58
2023-03-10T08:58:08.374Z,0.56
2023-03-10T09:03:15.668Z,0.58
2023-03-10T09:08:22.205Z,0.51
2023-03-10T09:13:27.635Z,0.58
2023-03-10T09:18:31.737Z,0.58
2023-03-10T09:23:38.335Z,0.60
2023-03-10T09:28:42.745Z,0.59
2023-03-10T09:33:45.557Z,0.61
2023-03-10T09:38:52.585Z,0.63
2023-03-10T09:44:02.430Z,0.70
2023-03-10T09:49:10.100Z,0.85
2023-03-10T09:54:21.031Z,1.00
2023-03-10T09:59:34.362Z,1.12
2023-03-10T10:04:41.533Z,1.15
2023-03-10T10:09:57.312Z,1.17
2023-03-10T10:15:16.997Z,1.11
2023-03-10T10:20:28.331Z,1.12
2023-03-10T10:25:33.188Z,1.11
2023-03-10T10:30:40.112Z,1.21
2023-03-10T10:36:09.896Z,1.23
2023-03-10T10:41:32.655Z,1.18
2023-03-10T10:46:36.746Z,1.20
2023-03-10T10:51:38.815Z,1.22
2023-03-10T10:56:54.864Z,1.28
2023-03-10T11:02:04.422Z,1.41
2023-03-10T11:07:19.924Z,1.42
2023-03-10T11:12:32.050Z,1.52
2023-03-10T11:17:42.830Z,1.77
2023-03-10T11:23:12.511Z,1.88
2023-03-10T11:28:51.300Z,2.00
2023-03-10T11:34:20.700Z,2.22
2023-03-10T11:39:48.954Z,2.32
2023-03-10T11:45:24.686Z,2.20
2023-03-10T11:50:34.272Z,2.30
2023-03-10T11:55:36.373Z,2.38
2023-03-10T12:00:41.672Z,2.45
2023-03-10T12:05:50.875Z,2.43
2023-03-10T12:10:52.822Z,2.48
2023-03-10T12:16:00.214Z,2.71
2023-03-10T12:21:21.000Z,2.95
2023-03-10T12:26:38.035Z,3.13
2023-03-10T12:31:39.942Z,2.98
2023-03-10T12:36:46.347Z,2.88
2023-03-10T12:41:53.045Z,2.73
2023-03-10T12:46:56.167Z,2.97
2023-03-10T12:52:07.698Z,2.92
2023-03-10T12:57:39.602Z,2.83
2023-03-10T13:02:51.082Z,2.65
2023-03-10T13:07:55.309Z,2.53
2023-03-10T13:13:02.208Z,2.45
2023-03-10T13:18:11.114Z,2.42
2023-03-10T13:23:23.526Z,2.34
2023-03-10T13:28:27.531Z,2.26
2023-03-10T13:33:29.313Z,2.21
2023-03-10T13:38:33.435Z,2.15
2023-03-10T13:43:39.991Z,2.10
2023-03-10T13:48:44.946Z,2.09
2023-03-10T13:53:52.598Z,2.02
2023-03-10T13:58:58.364Z,2.00
2023-03-10T14:04:06.860Z,2.02
2023-03-10T14:09:14.589Z,2.06
2023-03-10T14:14:27.929Z,2.04
2023-03-10T14:19:42.574Z,1.98
2023-03-10T14:24:44.549Z,1.98
2023-03-10T14:29:50.687Z,1.96
2023-03-10T14:35:00.700Z,1.92
2023-03-10T14:40:04.712Z,1.85
2023-03-10T14:45:28.876Z,1.78
2023-03-10T14:50:31.698Z,1.84
2023-03-10T14:55:36.687Z,1.76
2023-03-10T15:00:38.982Z,1.61
2023-03-10T15:05:48.984Z,1.51
2023-03-10T15:10:52.081Z,1.35
2023-03-10T15:15:56.396Z,1.28
2023-03-10T15:21:05.040Z,1.20
2023-03-10T15:26:13.054Z,1.15
2023-03-10T15:31:14.774Z,1.10
2023-03-10T15:36:19.042Z,1.02
2023-03-10T15:41:23.862Z,1.17
2023-03-10T15:46:25.686Z,1.07
2023-03-10T15:51:35.689Z,0.90
2023-03-10T15:56:37.428Z,0.81
2023-03-10T16:01:39.729Z,0.91
2023-03-10T16:06:41.516Z,0.85
2023-03-10T16:11:43.328Z,0.74
2023-03-10T16:16:47.545Z,0.70
2023-03-10T16:21:52.653Z,0.68
2023-03-10T16:26:54.410Z,0.64
2023-03-10T16:31:58.743Z,0.61
2023-03-10T16:37:02.525Z,0.56
2023-03-10T16:42:09.438Z,0.52
2023-03-10T16:47:12.405Z,0.51
2023-03-10T16:52:16.969Z,0.48
2023-03-10T16:57:23.569Z,0.41
2023-03-10T17:02:25.404Z,0.32
2023-03-10T17:07:27.209Z,0.31
2023-03-10T17:12:31.416Z,0.34
2023-03-10T17:17:35.630Z,0.31
2023-03-10T17:22:38.860Z,0.35
2023-03-10T17:27:43.759Z,0.39
2023-03-10T17:32:51.714Z,0.40
2023-03-10T17:37:53.468Z,0.38
2023-03-10T17:42:59.951Z,0.35
2023-03-10T17:48:10.174Z,0.36
2023-03-10T17:53:14.329Z,0.38
2023-03-10T17:58:18.371Z,0.38
2023-03-10T18:03:22.924Z,0.34
2023-03-10T18:08:26.102Z,0.32
2023-03-10T18:13:31.004Z,0.29
2023-03-10T18:18:35.103Z,0.28
2023-03-10T18:23:42.820Z,0.29
2023-03-10T18:28:47.158Z,0.29
2023-03-10T18:33:54.965Z,0.24
2023-03-10T18:38:56.786Z,0.09
2023-03-10T18:44:00.026Z,-0.02
2023-03-10T18:49:01.862Z,-0.02
2023-03-10T18:54:05.356Z,-0.08
2023-03-10T18:59:09.470Z,-0.08
2023-03-10T19:04:11.142Z,-0.01
2023-03-10T19:09:19.074Z,0.01
2023-03-10T19:14:23.413Z,0.01
2023-03-10T19:19:30.518Z,-0.01
2023-03-10T19:24:34.615Z,0.05
2023-03-10T19:29:36.645Z,-0.03
2023-03-10T19:34:40.963Z,-0.05
2023-03-10T19:39:42.703Z,-0.02
2023-03-10T19:44:47.614Z,0.02
2023-03-10T19:49:51.968Z,0.07
2023-03-10T19:54:53.981Z,0.10
2023-03-10T19:59:55.780Z,0.09
2023-03-10T20:04:57.770Z,-0.05
2023-03-10T20:09:59.504Z,-0.13
2023-03-10T20:15:01.400Z,-0.14
2023-03-10T20:20:10.105Z,-0.14
2023-03-10T20:25:14.671Z,-0.17
2023-03-10T20:30:27.777Z,-0.17
2023-03-10T20:35:33.740Z,-0.17
2023-03-10T20:40:38.400Z,-0.19
2023-03-10T20:45:42.750Z,-0.25
2023-03-10T20:50:47.527Z,-0.31
2023-03-10T20:55:49.304Z,-0.37
2023-03-10T21:00:53.530Z,-0.35
2023-03-10T21:05:57.609Z,-0.33
2023-03-10T21:10:59.328Z,-0.33
2023-03-10T21:16:03.190Z,-0.26
2023-03-10T21:21:09.724Z,-0.29
2023-03-10T21:26:18.496Z,-0.33
2023-03-10T21:31:25.307Z,-0.34
2023-03-10T21:36:27.841Z,-0.35
2023-03-10T21:41:34.510Z,-0.40
2023-03-10T21:46:37.008Z,-0.51
2023-03-10T21:51:38.948Z,-0.53
2023-03-10T21:56:40.717Z,-0.52
2023-03-10T22:01:42.872Z,-0.48
2023-03-10T22:06:47.295Z,-0.44
2023-03-10T22:11:48.977Z,-0.45
2023-03-10T22:16:50.680Z,-0.45
2023-03-10T22:21:54.583Z,-0.40
2023-03-10T22:26:58.561Z,-0.41
2023-03-10T22:32:03.007Z,-0.52
2023-03-10T22:37:04.755Z,-0.49
2023-03-10T22:42:13.538Z,-0.42
2023-03-10T22:47:15.269Z,-0.42
2023-03-10T22:52:17.205Z,-0.42
2023-03-10T22:57:21.280Z,-0.41
2023-03-10T23:02:22.948Z,-0.47
2023-03-10T23:07:29.414Z,-0.48
2023-03-10T23:12:33.711Z,-0.40
2023-03-10T23:17:40.307Z,-0.46
2023-03-10T23:22:44.555Z,-0.54
2023-03-10T23:27:49.188Z,-0.69
2023-03-10T23:32:53.977Z,-0.75
2023-03-10T23:37:59.981Z,-0.77
2023-03-10T23:43:08.118Z,-0.72
2023-03-10T23:48:16.074Z,-0.87
2023-03-10T23:53:22.329Z,-1.02
2023-03-10T23:58:27.825Z,-0.95
